Time;durP1;ratioP1;P1;durP2;ratioP2;P2;SDS_P1;SDS_P2;PMS_P1;PMS_P2;Temp;Humidity;BMP_temperature;BMP_pressure;BME280_temperature;BME280_humidity;BME280_pressure;Samples;Min_cycle;Max_cycle;Signal;HPM_P1;HPM_P2
2022/07/10 00:00:05;;;;;;;4.35;3.10;;;;;;;;;;4753700;30;20044;-59
2022/07/10 00:02:39;;;;;;;8.00;3.95;;;;;;;;;;4753610;30;20053;-59
2022/07/10 00:05:07;;;;;;;5.28;3.08;;;;;;;;;;4753618;30;20463;-59
2022/07/10 00:07:34;;;;;;;3.92;3.50;;;;;;;;;;4753633;30;20098;-59
2022/07/10 00:10:03;;;;;;;6.95;3.40;;;;;;;;;;4752965;30;20060;-59
2022/07/10 00:12:31;;;;;;;6.15;3.63;;;;;;;;;;4753340;30;20509;-59
2022/07/10 00:14:59;;;;;;;5.22;3.13;;;;;;;;;;4753496;30;20060;-59
2022/07/10 00:17:27;;;;;;;5.57;2.78;;;;;;;;;;4753261;30;20041;-59
2022/07/10 00:19:54;;;;;;;5.30;3.25;;;;;;;;;;4753195;30;20083;-59
2022/07/10 00:22:21;;;;;;;3.40;2.90;;;;;;;;;;4753512;30;20052;-59
2022/07/10 00:24:50;;;;;;;4.53;3.67;;;;;;;;;;4753343;30;20115;-59
2022/07/10 00:27:18;;;;;;;10.02;3.85;;;;;;;;;;4753213;30;20094;-53
2022/07/10 00:29:45;;;;;;;3.95;3.00;;;;;;;;;;4734014;30;20540;-59
2022/07/10 00:32:12;;;;;;;5.07;2.80;;;;;;;;;;4735494;30;20461;-60
2022/07/10 00:34:40;;;;;;;4.88;3.35;;;;;;;;;;4735659;30;20091;-60
2022/07/10 00:37:07;;;;;;;4.85;3.42;;;;;;;;;;4735455;30;20087;-60
2022/07/10 00:39:34;;;;;;;5.32;3.72;;;;;;;;;;4735419;30;20057;-59
2022/07/10 00:42:13;;;;;;;3.75;3.35;;;;;;;;;;4735106;30;20045;-60
2022/07/10 00:44:41;;;;;;;4.97;3.08;;;;;;;;;;4735305;30;20052;-59
2022/07/10 00:47:11;;;;;;;4.75;3.03;;;;;;;;;;4735311;30;20095;-60
2022/07/10 00:49:39;;;;;;;5.38;3.95;;;;;;;;;;4735511;30;20080;-60
2022/07/10 00:52:07;;;;;;;6.45;4.43;;;;;;;;;;4751864;30;20044;-59
2022/07/10 00:54:35;;;;;;;5.13;3.88;;;;;;;;;;4752516;30;20109;-59
2022/07/10 00:57:05;;;;;;;3.72;3.05;;;;;;;;;;4752347;30;20055;-60
2022/07/10 00:59:33;;;;;;;6.15;4.20;;;;;;;;;;4752528;30;20076;-59
2022/07/10 01:02:01;;;;;;;5.55;3.75;;;;;;;;;;4752611;30;20509;-60
2022/07/10 01:04:29;;;;;;;3.25;2.60;;;;;;;;;;4752834;30;20044;-60
2022/07/10 01:06:57;;;;;;;3.63;2.42;;;;;;;;;;4752226;30;20460;-60
2022/07/10 01:09:25;;;;;;;7.30;5.15;;;;;;;;;;4752136;30;20055;-57
2022/07/10 01:11:52;;;;;;;6.43;2.90;;;;;;;;;;4752111;30;20055;-59
2022/07/10 01:14:20;;;;;;;3.80;2.92;;;;;;;;;;4752347;30;20409;-59
2022/07/10 01:16:48;;;;;;;3.95;3.25;;;;;;;;;;4752247;30;20048;-58
2022/07/10 01:19:15;;;;;;;4.07;3.00;;;;;;;;;;4736702;30;20048;-59
2022/07/10 01:21:42;;;;;;;5.82;3.40;;;;;;;;;;4752441;30;20116;-60
2022/07/10 01:24:10;;;;;;;3.33;2.78;;;;;;;;;;4751849;30;20059;-59
2022/07/10 01:26:42;;;;;;;5.53;3.35;;;;;;;;;;4752386;30;20055;-60
2022/07/10 01:29:12;;;;;;;4.28;3.42;;;;;;;;;;4752050;30;20464;-59
2022/07/10 01:31:39;;;;;;;3.90;3.33;;;;;;;;;;4751888;30;20480;-60
2022/07/10 01:34:09;;;;;;;6.97;4.63;;;;;;;;;;4751886;30;20048;-60
2022/07/10 01:36:37;;;;;;;7.80;6.32;;;;;;;;;;4735242;30;20043;-60
2022/07/10 01:39:06;;;;;;;4.65;4.20;;;;;;;;;;4734502;30;20056;-60
2022/07/10 01:41:33;;;;;;;6.80;4.65;;;;;;;;;;4734316;30;20075;-60
2022/07/10 01:44:01;;;;;;;4.13;3.63;;;;;;;;;;4734394;30;20415;-59
2022/07/10 01:46:29;;;;;;;8.23;5.00;;;;;;;;;;4734312;30;20574;-60
2022/07/10 01:48:57;;;;;;;5.13;3.97;;;;;;;;;;4734401;30;20049;-60
2022/07/10 01:51:24;;;;;;;5.38;3.90;;;;;;;;;;4734061;30;20566;-60
2022/07/10 01:53:51;;;;;;;5.72;5.10;;;;;;;;;;4718765;30;20041;-60
2022/07/10 01:56:18;;;;;;;7.55;4.00;;;;;;;;;;4734363;30;20045;-58
2022/07/10 01:58:45;;;;;;;5.03;3.80;;;;;;;;;;4734189;30;20064;-59
2022/07/10 02:01:13;;;;;;;5.18;4.00;;;;;;;;;;4734323;30;20049;-60
2022/07/10 02:06:26;;;;;;;6.53;5.13;;;;;;;;;;4733908;30;20048;-60
2022/07/10 02:08:53;;;;;;;6.18;3.63;;;;;;;;;;4734075;30;20516;-60
2022/07/10 02:11:20;;;;;;;5.93;3.20;;;;;;;;;;4734126;30;20114;-59
2022/07/10 02:13:48;;;;;;;6.00;4.53;;;;;;;;;;4718464;30;20052;-58
2022/07/10 02:16:17;;;;;;;5.88;4.97;;;;;;;;;;4733594;30;20044;-60
2022/07/10 02:18:45;;;;;;;4.22;3.83;;;;;;;;;;4734348;30;20053;-60
2022/07/10 02:21:12;;;;;;;5.18;3.58;;;;;;;;;;4733805;30;20083;-60
2022/07/10 02:23:40;;;;;;;4.65;3.85;;;;;;;;;;4733785;30;20057;-60
2022/07/10 02:26:08;;;;;;;7.22;4.05;;;;;;;;;;4733735;30;20556;-60
2022/07/10 02:28:36;;;;;;;5.88;4.20;;;;;;;;;;4733520;30;20068;-59
2022/07/10 02:31:03;;;;;;;4.57;3.28;;;;;;;;;;4733580;30;20383;-60
2022/07/10 02:33:31;;;;;;;3.92;3.35;;;;;;;;;;4733626;30;20055;-60
2022/07/10 02:35:58;;;;;;;4.18;3.58;;;;;;;;;;4733801;30;20053;-60
2022/07/10 02:38:25;;;;;;;4.60;3.90;;;;;;;;;;4733167;30;20127;-59
2022/07/10 02:40:52;;;;;;;4.47;3.00;;;;;;;;;;4733617;30;20124;-60
2022/07/10 02:43:20;;;;;;;3.70;3.05;;;;;;;;;;4732859;30;20049;-60
2022/07/10 02:45:47;;;;;;;3.78;3.10;;;;;;;;;;4733988;30;20106;-60
2022/07/10 02:48:15;;;;;;;4.10;2.60;;;;;;;;;;4733774;30;20445;-60
2022/07/10 02:50:43;;;;;;;3.90;2.50;;;;;;;;;;4742360;30;20048;-60
2022/07/10 02:53:10;;;;;;;4.22;2.70;;;;;;;;;;4751250;30;20079;-61
2022/07/10 02:55:37;;;;;;;4.43;2.70;;;;;;;;;;4751443;30;20123;-59
2022/07/10 02:58:04;;;;;;;3.55;2.33;;;;;;;;;;4751105;30;20055;-60
2022/07/10 03:00:35;;;;;;;3.67;2.20;;;;;;;;;;4751077;30;20052;-60
2022/07/10 03:03:02;;;;;;;3.80;2.50;;;;;;;;;;4751126;30;20048;-60
2022/07/10 03:05:33;;;;;;;4.07;2.50;;;;;;;;;;4751048;30;20053;-60
2022/07/10 03:08:00;;;;;;;4.28;2.30;;;;;;;;;;4735395;30;20048;-60
2022/07/10 03:10:27;;;;;;;2.72;2.17;;;;;;;;;;4750641;30;20059;-59
2022/07/10 03:12:55;;;;;;;3.30;2.50;;;;;;;;;;4750946;30;20586;-60
2022/07/10 03:15:22;;;;;;;3.22;2.28;;;;;;;;;;4753112;30;20110;-60
2022/07/10 03:17:49;;;;;;;5.88;2.83;;;;;;;;;;4754595;30;20473;-55
2022/07/10 03:20:16;;;;;;;6.47;2.55;;;;;;;;;;4754628;30;20052;-60
2022/07/10 03:22:44;;;;;;;3.92;2.50;;;;;;;;;;4754522;30;20052;-60
2022/07/10 03:25:11;;;;;;;3.40;2.30;;;;;;;;;;4752000;30;20048;-59
2022/07/10 03:27:38;;;;;;;2.90;2.15;;;;;;;;;;4719215;30;20061;-60
2022/07/10 03:30:06;;;;;;;4.97;2.70;;;;;;;;;;4718795;30;20049;-60
2022/07/10 03:32:36;;;;;;;3.40;2.38;;;;;;;;;;4718990;30;20045;-60
2022/07/10 03:35:04;;;;;;;2.20;1.90;;;;;;;;;;4718997;30;20049;-59
2022/07/10 03:37:31;;;;;;;3.25;2.03;;;;;;;;;;4718817;30;20057;-60
2022/07/10 03:39:58;;;;;;;2.97;2.55;;;;;;;;;;4719024;30;20391;-60
2022/07/10 03:42:25;;;;;;;3.85;1.92;;;;;;;;;;4718782;30;20053;-59
2022/07/10 03:44:55;;;;;;;2.47;1.88;;;;;;;;;;4718905;30;20081;-60
2022/07/10 03:47:22;;;;;;;2.90;1.80;;;;;;;;;;4718460;30;20395;-59
2022/07/10 03:49:50;;;;;;;2.35;1.67;;;;;;;;;;4722467;30;20049;-60
2022/07/10 03:52:17;;;;;;;2.15;1.70;;;;;;;;;;4754095;30;20500;-59
2022/07/10 03:54:44;;;;;;;4.65;1.92;;;;;;;;;;4754033;30;20110;-59
2022/07/10 03:59:58;;;;;;;5.75;1.67;;;;;;;;;;4753724;30;20056;-60
2022/07/10 04:02:25;;;;;;;2.50;1.40;;;;;;;;;;4753429;30;20048;-59
2022/07/10 04:04:52;;;;;;;1.30;1.00;;;;;;;;;;4753676;30;20048;-60
2022/07/10 04:07:20;;;;;;;1.63;1.30;;;;;;;;;;4753464;30;20050;-60
2022/07/10 04:09:47;;;;;;;2.17;1.42;;;;;;;;;;4753679;30;20081;-60
2022/07/10 04:12:15;;;;;;;2.40;1.42;;;;;;;;;;4748713;30;20045;-60
2022/07/10 04:14:42;;;;;;;5.32;1.88;;;;;;;;;;4735720;30;20040;-59
2022/07/10 04:17:09;;;;;;;4.15;1.30;;;;;;;;;;4735663;30;20056;-60
2022/07/10 04:19:36;;;;;;;3.15;1.27;;;;;;;;;;4735461;30;20044;-60
2022/07/10 04:22:03;;;;;;;2.95;1.35;;;;;;;;;;4735768;30;20482;-60
2022/07/10 04:24:31;;;;;;;1.75;1.20;;;;;;;;;;4735786;30;20123;-60
2022/07/10 04:26:58;;;;;;;1.92;1.30;;;;;;;;;;4735556;30;20052;-60
2022/07/10 04:29:25;;;;;;;2.72;1.10;;;;;;;;;;4735426;30;20056;-59
2022/07/10 04:31:52;;;;;;;1.65;1.17;;;;;;;;;;4735475;30;20053;-60
2022/07/10 04:34:20;;;;;;;2.20;1.10;;;;;;;;;;4735804;30;20045;-59
2022/07/10 04:36:47;;;;;;;2.60;1.10;;;;;;;;;;4735582;30;20118;-60
2022/07/10 04:39:14;;;;;;;3.35;1.27;;;;;;;;;;4735556;30;20045;-59
2022/07/10 04:41:42;;;;;;;1.30;1.05;;;;;;;;;;4734928;30;20056;-60
2022/07/10 04:44:09;;;;;;;1.40;0.95;;;;;;;;;;4734926;30;20076;-59
2022/07/10 04:46:38;;;;;;;1.95;1.08;;;;;;;;;;4735479;30;20406;-60
2022/07/10 04:49:06;;;;;;;1.45;1.10;;;;;;;;;;4735549;30;20087;-59
2022/07/10 04:51:33;;;;;;;1.55;1.25;;;;;;;;;;4749723;30;20055;-59
2022/07/10 04:54:00;;;;;;;2.50;1.10;;;;;;;;;;4752919;30;20051;-59
2022/07/10 04:56:27;;;;;;;4.28;1.05;;;;;;;;;;4752876;30;20080;-60
2022/07/10 04:58:55;;;;;;;1.60;0.93;;;;;;;;;;4752429;30;20127;-59
2022/07/10 05:01:22;;;;;;;1.58;0.95;;;;;;;;;;4752428;30;20063;-60
2022/07/10 05:03:49;;;;;;;1.27;0.82;;;;;;;;;;4752430;30;20093;-59
2022/07/10 05:06:16;;;;;;;1.38;0.93;;;;;;;;;;4752313;30;20501;-60
2022/07/10 05:08:44;;;;;;;1.33;0.90;;;;;;;;;;4752417;30;20056;-60
2022/07/10 05:11:11;;;;;;;1.40;0.75;;;;;;;;;;4752360;30;20117;-60
2022/07/10 05:13:38;;;;;;;2.00;1.10;;;;;;;;;;4752433;30;20052;-60
2022/07/10 05:16:06;;;;;;;1.25;1.00;;;;;;;;;;4752476;30;20401;-59
2022/07/10 05:18:35;;;;;;;1.88;0.95;;;;;;;;;;4752686;30;20247;-60
2022/07/10 05:21:03;;;;;;;1.40;1.00;;;;;;;;;;4752399;30;20417;-60
2022/07/10 05:23:31;;;;;;;1.00;0.70;;;;;;;;;;4752372;30;20387;-60
2022/07/10 05:25:58;;;;;;;3.53;0.80;;;;;;;;;;4751987;30;20060;-60
2022/07/10 05:28:25;;;;;;;2.55;0.80;;;;;;;;;;4752380;30;20048;-60
2022/07/10 05:30:53;;;;;;;1.75;0.65;;;;;;;;;;4752235;30;20056;-60
2022/07/10 05:33:20;;;;;;;1.75;0.80;;;;;;;;;;4752035;30;20590;-58
2022/07/10 05:35:47;;;;;;;1.98;0.90;;;;;;;;;;4751635;30;20056;-60
2022/07/10 05:38:15;;;;;;;1.38;0.70;;;;;;;;;;4751374;30;20044;-60
2022/07/10 05:40:42;;;;;;;1.08;0.70;;;;;;;;;;4751816;30;20152;-60
2022/07/10 05:43:10;;;;;;;4.25;0.85;;;;;;;;;;4752183;30;20048;-59
2022/07/10 05:45:38;;;;;;;3.67;0.80;;;;;;;;;;4751969;30;20079;-60
2022/07/10 05:48:08;;;;;;;1.88;0.70;;;;;;;;;;4751616;30;20356;-60
2022/07/10 05:50:36;;;;;;;0.52;0.52;;;;;;;;;;4748871;30;20052;-58
2022/07/10 05:53:03;;;;;;;2.30;0.60;;;;;;;;;;4752140;30;20112;-60
2022/07/10 05:55:30;;;;;;;1.80;0.70;;;;;;;;;;4751943;30;20049;-60
2022/07/10 05:57:58;;;;;;;2.47;0.60;;;;;;;;;;4751761;30;20098;-59
2022/07/10 06:00:26;;;;;;;1.52;0.70;;;;;;;;;;4751571;30;20056;-60
2022/07/10 06:02:53;;;;;;;3.65;0.73;;;;;;;;;;4751694;30;20052;-60
2022/07/10 06:05:20;;;;;;;0.60;0.45;;;;;;;;;;4751756;30;20052;-58
2022/07/10 06:07:47;;;;;;;0.73;0.40;;;;;;;;;;4751913;30;20128;-60
2022/07/10 06:10:15;;;;;;;1.00;0.50;;;;;;;;;;4751678;30;20456;-59
2022/07/10 06:12:42;;;;;;;2.83;0.70;;;;;;;;;;4751312;30;20056;-59
2022/07/10 06:15:09;;;;;;;1.70;0.50;;;;;;;;;;4751569;30;20048;-59
2022/07/10 06:17:44;;;;;;;0.82;0.50;;;;;;;;;;4751722;30;20052;-59
2022/07/10 06:20:12;;;;;;;1.42;0.63;;;;;;;;;;4751241;30;20087;-59
2022/07/10 06:22:40;;;;;;;1.13;0.50;;;;;;;;;;4751624;30;20044;-59
2022/07/10 06:25:08;;;;;;;0.82;0.50;;;;;;;;;;4751388;30;20386;-59
2022/07/10 06:27:35;;;;;;;1.10;0.82;;;;;;;;;;4735679;30;20413;-59
2022/07/10 06:30:06;;;;;;;1.05;0.40;;;;;;;;;;4751478;30;20421;-58
2022/07/10 06:32:33;;;;;;;1.58;0.60;;;;;;;;;;4750821;30;20051;-59
2022/07/10 06:35:01;;;;;;;1.08;0.65;;;;;;;;;;4751247;30;20082;-59
2022/07/10 06:37:28;;;;;;;1.40;0.50;;;;;;;;;;4751249;30;20417;-59
2022/07/10 06:39:56;;;;;;;0.95;0.50;;;;;;;;;;4751283;30;20048;-59
2022/07/10 06:42:23;;;;;;;1.15;0.70;;;;;;;;;;4751147;30;20099;-59
2022/07/10 06:44:51;;;;;;;0.95;0.50;;;;;;;;;;4735189;30;20048;-59
2022/07/10 06:50:06;;;;;;;0.93;0.65;;;;;;;;;;4752457;30;20051;-59
2022/07/10 06:52:34;;;;;;;0.82;0.50;;;;;;;;;;4754590;30;20048;-59
2022/07/10 06:55:03;;;;;;;0.85;0.60;;;;;;;;;;4738581;30;20048;-59
2022/07/10 06:57:31;;;;;;;1.50;0.60;;;;;;;;;;4754169;30;20078;-59
2022/07/10 06:59:58;;;;;;;2.60;0.60;;;;;;;;;;4754873;30;20460;-60
2022/07/10 07:02:25;;;;;;;2.45;0.90;;;;;;;;;;4754732;30;20052;-59
2022/07/10 07:04:53;;;;;;;1.42;0.80;;;;;;;;;;4754785;30;20056;-60
2022/07/10 07:07:20;;;;;;;0.70;0.50;;;;;;;;;;4754407;30;20052;-58
2022/07/10 07:09:52;;;;;;;2.22;0.80;;;;;;;;;;4754569;30;20417;-59
2022/07/10 07:12:20;;;;;;;0.93;0.60;;;;;;;;;;4754380;30;20052;-55
2022/07/10 07:14:47;;;;;;;0.70;0.60;;;;;;;;;;4754992;30;20048;-60
2022/07/10 07:17:21;;;;;;;1.45;0.55;;;;;;;;;;4754314;30;20048;-59
2022/07/10 07:25:20;;;;;;;1.17;0.60;;;;;;;;;;4754355;30;20044;-58
2022/07/10 07:27:47;;;;;;;2.10;0.52;;;;;;;;;;4754322;30;20044;-59
2022/07/10 07:30:15;;;;;;;0.93;0.57;;;;;;;;;;4754383;30;20052;-59
2022/07/10 07:32:45;;;;;;;3.03;0.90;;;;;;;;;;4754008;30;20459;-59
2022/07/10 07:35:14;;;;;;;1.73;0.63;;;;;;;;;;4753793;30;20075;-59
2022/07/10 07:37:45;;;;;;;4.55;0.70;;;;;;;;;;4753542;30;20044;-59
2022/07/10 07:40:14;;;;;;;0.90;0.60;;;;;;;;;;4753676;30;20055;-60
2022/07/10 07:42:42;;;;;;;0.90;0.68;;;;;;;;;;4753925;30;20051;-60
2022/07/10 07:45:09;;;;;;;2.25;0.60;;;;;;;;;;4753772;30;20056;-59
2022/07/10 07:48:07;;;;;;;0.90;0.43;;;;;;;;;;4753737;30;20080;-59
2022/07/10 07:50:36;;;;;;;1.02;0.60;;;;;;;;;;4743857;30;20087;-60
2022/07/10 07:53:05;;;;;;;0.60;0.50;;;;;;;;;;4753676;30;20044;-59
2022/07/10 07:55:33;;;;;;;0.82;0.60;;;;;;;;;;4753849;30;20059;-59
2022/07/10 07:58:02;;;;;;;1.60;0.57;;;;;;;;;;4753630;30;20064;-59
2022/07/10 08:00:30;;;;;;;0.98;0.45;;;;;;;;;;4752969;30;20062;-60
2022/07/10 08:02:58;;;;;;;2.22;0.52;;;;;;;;;;4753757;30;20048;-60
2022/07/10 08:05:25;;;;;;;0.90;0.40;;;;;;;;;;4753072;30;20048;-59
2022/07/10 08:07:59;;;;;;;1.33;0.63;;;;;;;;;;4753343;30;20139;-59
2022/07/10 08:10:27;;;;;;;0.98;0.65;;;;;;;;;;4752378;30;20056;-60
2022/07/10 08:12:54;;;;;;;1.00;0.60;;;;;;;;;;4753272;30;20055;-60
2022/07/10 08:15:22;;;;;;;0.82;0.60;;;;;;;;;;4753656;30;20052;-60
2022/07/10 08:17:52;;;;;;;1.75;0.40;;;;;;;;;;4753336;30;20040;-57
2022/07/10 08:20:20;;;;;;;0.93;0.40;;;;;;;;;;4753938;30;20456;-59
2022/07/10 08:22:48;;;;;;;0.80;0.32;;;;;;;;;;4753195;30;20410;-57
2022/07/10 08:25:21;;;;;;;0.73;0.40;;;;;;;;;;4753372;30;20052;-59
2022/07/10 08:27:49;;;;;;;0.90;0.50;;;;;;;;;;4753161;30;20462;-59
2022/07/10 08:30:17;;;;;;;0.80;0.40;;;;;;;;;;4753406;30;20047;-60
2022/07/10 08:32:44;;;;;;;0.57;0.30;;;;;;;;;;4753116;30;20058;-57
2022/07/10 08:35:13;;;;;;;0.70;0.50;;;;;;;;;;4753164;30;20052;-59
2022/07/10 08:37:42;;;;;;;1.88;0.63;;;;;;;;;;4752905;30;20060;-60
2022/07/10 08:40:12;;;;;;;1.48;0.77;;;;;;;;;;4752890;30;20142;-60
2022/07/10 08:42:41;;;;;;;0.80;0.43;;;;;;;;;;4752953;30;20472;-60
2022/07/10 08:45:09;;;;;;;0.80;0.45;;;;;;;;;;4753039;30;20044;-60
2022/07/10 08:47:38;;;;;;;1.38;0.60;;;;;;;;;;4752828;30;20112;-60
2022/07/10 08:50:16;;;;;;;2.03;0.60;;;;;;;;;;4740021;30;20179;-60
2022/07/10 08:53:06;;;;;;;0.60;0.50;;;;;;;;;;4752631;30;20413;-59
2022/07/10 08:55:36;;;;;;;0.93;0.55;;;;;;;;;;4751961;30;20052;-59
2022/07/10 08:58:06;;;;;;;2.47;0.52;;;;;;;;;;4736603;30;20121;-60
2022/07/10 09:00:34;;;;;;;1.20;0.45;;;;;;;;;;4752541;30;20536;-59
2022/07/10 09:03:01;;;;;;;2.47;0.50;;;;;;;;;;4752361;30;20428;-59
2022/07/10 09:05:29;;;;;;;1.63;0.50;;;;;;;;;;4752526;30;20106;-60
2022/07/10 09:07:56;;;;;;;2.35;0.38;;;;;;;;;;4752304;30;20048;-59
2022/07/10 09:10:27;;;;;;;0.70;0.30;;;;;;;;;;4752808;30;20056;-59
2022/07/10 09:13:01;;;;;;;1.02;0.52;;;;;;;;;;4751522;30;20530;-59
2022/07/10 09:15:32;;;;;;;0.65;0.40;;;;;;;;;;4752152;30;20123;-59
2022/07/10 09:18:02;;;;;;;0.88;0.47;;;;;;;;;;4752042;30;20389;-60
2022/07/10 09:20:35;;;;;;;0.60;0.40;;;;;;;;;;4752372;30;20509;-60
2022/07/10 09:23:21;;;;;;;1.50;0.60;;;;;;;;;;4752245;30;20059;-59
2022/07/10 09:25:50;;;;;;;1.00;0.45;;;;;;;;;;4752563;30;20052;-60
2022/07/10 09:28:20;;;;;;;1.65;0.55;;;;;;;;;;4752555;30;20421;-60
2022/07/10 09:30:48;;;;;;;0.70;0.52;;;;;;;;;;4751307;30;20106;-59
2022/07/10 09:33:25;;;;;;;1.45;0.60;;;;;;;;;;4750767;30;20390;-59
2022/07/10 09:36:04;;;;;;;1.75;0.50;;;;;;;;;;4750064;30;20056;-60
2022/07/10 09:38:44;;;;;;;3.13;0.75;;;;;;;;;;4750636;30;20476;-59
2022/07/10 09:41:31;;;;;;;1.00;0.60;;;;;;;;;;4750218;30;20044;-60
2022/07/10 09:44:00;;;;;;;1.55;0.85;;;;;;;;;;4750198;30;20048;-59
2022/07/10 09:46:36;;;;;;;2.00;0.70;;;;;;;;;;4750294;30;20044;-59
2022/07/10 09:49:11;;;;;;;1.02;0.80;;;;;;;;;;4749926;30;20517;-60
2022/07/10 09:51:44;;;;;;;1.45;0.80;;;;;;;;;;4747167;30;20052;-59
2022/07/10 09:54:16;;;;;;;2.97;0.90;;;;;;;;;;4750026;30;20044;-60
2022/07/10 09:56:46;;;;;;;2.15;0.60;;;;;;;;;;4750246;30;20048;-59
2022/07/10 09:59:20;;;;;;;0.90;0.60;;;;;;;;;;4750312;30;20052;-58
2022/07/10 10:01:50;;;;;;;1.95;1.10;;;;;;;;;;4750383;30;20079;-59
2022/07/10 10:04:19;;;;;;;1.98;1.00;;;;;;;;;;4750231;30;20052;-59
2022/07/10 10:06:51;;;;;;;1.48;1.00;;;;;;;;;;4749869;30;20048;-59
2022/07/10 10:09:24;;;;;;;1.03;0.80;;;;;;;;;;4750271;30;20040;-59
2022/07/10 10:12:02;;;;;;;1.60;0.95;;;;;;;;;;4749647;30;20662;-59
2022/07/10 10:14:33;;;;;;;1.80;1.10;;;;;;;;;;4750069;30;20044;-58
2022/07/10 10:17:01;;;;;;;1.75;0.90;;;;;;;;;;4750113;30;20040;-59
2022/07/10 10:22:18;;;;;;;3.03;1.25;;;;;;;;;;4749839;30;20037;-59
2022/07/10 10:24:46;;;;;;;5.80;0.90;;;;;;;;;;4749534;30;20060;-59
2022/07/10 10:27:15;;;;;;;2.55;0.88;;;;;;;;;;4749510;30;20114;-60
2022/07/10 10:29:43;;;;;;;1.98;0.95;;;;;;;;;;4749800;30;20102;-59
2022/07/10 10:32:11;;;;;;;1.90;0.88;;;;;;;;;;4748998;30;20513;-59
2022/07/10 10:34:41;;;;;;;5.75;1.30;;;;;;;;;;4749704;30;20136;-59
2022/07/10 10:37:27;;;;;;;1.92;0.90;;;;;;;;;;4749757;30;20041;-60
2022/07/10 10:39:56;;;;;;;1.15;0.82;;;;;;;;;;4749387;30;20125;-59
2022/07/10 10:42:39;;;;;;;2.08;1.30;;;;;;;;;;4749433;30;20101;-58
2022/07/10 10:45:27;;;;;;;1.65;1.05;;;;;;;;;;4749742;30;20044;-59
2022/07/10 10:48:01;;;;;;;1.27;0.80;;;;;;;;;;4749525;30;20044;-59
2022/07/10 10:50:56;;;;;;;1.70;0.80;;;;;;;;;;4749688;30;20537;-59
2022/07/10 10:53:26;;;;;;;3.35;1.00;;;;;;;;;;4749272;30;20060;-59
2022/07/10 10:55:59;;;;;;;3.78;1.00;;;;;;;;;;4749355;30;20052;-59
2022/07/10 10:58:28;;;;;;;1.13;0.80;;;;;;;;;;4749432;30;20056;-59
2022/07/10 11:01:26;;;;;;;3.35;0.90;;;;;;;;;;4734779;30;20048;-58
2022/07/10 11:04:10;;;;;;;1.45;0.85;;;;;;;;;;4716086;30;20052;-58
2022/07/10 11:06:42;;;;;;;1.73;0.98;;;;;;;;;;4731857;30;20056;-59
2022/07/10 11:09:30;;;;;;;1.27;0.93;;;;;;;;;;4731947;30;20052;-59
2022/07/10 11:12:05;;;;;;;1.98;0.80;;;;;;;;;;4731945;30;20051;-59
2022/07/10 11:14:37;;;;;;;1.20;0.77;;;;;;;;;;4731675;30;20056;-58
2022/07/10 11:17:06;;;;;;;1.38;0.90;;;;;;;;;;4732071;30;20045;-60
2022/07/10 11:19:34;;;;;;;1.38;0.90;;;;;;;;;;4731291;30;20406;-59
2022/07/10 11:22:11;;;;;;;1.90;0.80;;;;;;;;;;4731672;30;20125;-58
2022/07/10 11:24:48;;;;;;;2.05;1.00;;;;;;;;;;4731471;30;20049;-60
2022/07/10 11:27:28;;;;;;;1.15;0.80;;;;;;;;;;4731865;30;20182;-60
2022/07/10 11:30:00;;;;;;;3.00;0.82;;;;;;;;;;4731841;30;20048;-60
2022/07/10 11:32:30;;;;;;;1.35;0.70;;;;;;;;;;4731645;30;20498;-58
2022/07/10 11:34:58;;;;;;;3.53;1.00;;;;;;;;;;4731198;30;20135;-60
2022/07/10 11:37:30;;;;;;;1.38;0.70;;;;;;;;;;4733331;30;20052;-60
2022/07/10 11:40:11;;;;;;;1.73;0.73;;;;;;;;;;4733484;30;20529;-59
2022/07/10 11:42:51;;;;;;;1.88;0.93;;;;;;;;;;4733724;30;20510;-57
2022/07/10 11:45:30;;;;;;;1.33;0.90;;;;;;;;;;4718399;30;20152;-60
2022/07/10 11:47:59;;;;;;;1.25;0.70;;;;;;;;;;4733653;30;20047;-59
2022/07/10 11:50:27;;;;;;;1.27;0.80;;;;;;;;;;4740128;30;20052;-59
2022/07/10 11:52:55;;;;;;;2.65;0.80;;;;;;;;;;4750575;30;20059;-59
2022/07/10 11:55:29;;;;;;;1.35;0.68;;;;;;;;;;4743918;30;20433;-60
2022/07/10 11:58:17;;;;;;;2.53;0.80;;;;;;;;;;4750086;30;20489;-59
2022/07/10 12:00:58;;;;;;;1.45;0.68;;;;;;;;;;4750786;30;20059;-59
2022/07/10 12:03:26;;;;;;;1.38;0.70;;;;;;;;;;4734956;30;20048;-59
2022/07/10 12:06:05;;;;;;;0.88;0.52;;;;;;;;;;4750084;30;20044;-59
2022/07/10 12:08:43;;;;;;;2.38;0.82;;;;;;;;;;4750731;30;20052;-59
2022/07/10 12:11:12;;;;;;;1.35;0.60;;;;;;;;;;4750554;30;20047;-60
2022/07/10 12:13:40;;;;;;;2.90;0.70;;;;;;;;;;4750277;30;20048;-59
2022/07/10 12:16:07;;;;;;;1.60;0.80;;;;;;;;;;4751616;30;20045;-59
2022/07/10 12:18:35;;;;;;;3.67;0.75;;;;;;;;;;4751728;30;20044;-59
2022/07/10 12:21:04;;;;;;;1.42;0.70;;;;;;;;;;4751817;30;20119;-59
2022/07/10 12:23:32;;;;;;;2.35;0.60;;;;;;;;;;4751935;30;20159;-59
2022/07/10 12:25:59;;;;;;;1.95;0.60;;;;;;;;;;4751245;30;20044;-60
2022/07/10 12:28:27;;;;;;;4.03;0.60;;;;;;;;;;4751856;30;20102;-59
2022/07/10 12:30:54;;;;;;;4.45;0.75;;;;;;;;;;4751621;30;20040;-58
2022/07/10 12:33:23;;;;;;;1.63;0.45;;;;;;;;;;4744230;30;20460;-58
2022/07/10 12:35:57;;;;;;;2.30;0.50;;;;;;;;;;4751135;30;20048;-58
2022/07/10 12:38:31;;;;;;;1.10;0.47;;;;;;;;;;4751273;30;20098;-60
2022/07/10 12:41:13;;;;;;;1.85;0.70;;;;;;;;;;4751220;30;20177;-60
2022/07/10 12:43:46;;;;;;;1.85;0.47;;;;;;;;;;4751072;30;20453;-59
2022/07/10 12:46:21;;;;;;;2.47;0.43;;;;;;;;;;4751589;30;20110;-60
2022/07/10 12:49:03;;;;;;;1.60;0.80;;;;;;;;;;4751257;30;20123;-61
2022/07/10 12:51:44;;;;;;;2.33;0.93;;;;;;;;;;4748483;30;20071;-60
2022/07/10 12:54:36;;;;;;;2.08;0.60;;;;;;;;;;4751421;30;20474;-60
2022/07/10 12:57:05;;;;;;;1.17;0.60;;;;;;;;;;4736115;30;20049;-59
2022/07/10 12:59:37;;;;;;;2.15;0.60;;;;;;;;;;4733950;30;20399;-60
2022/07/10 13:02:19;;;;;;;2.50;0.75;;;;;;;;;;4717949;30;20119;-59
2022/07/10 13:04:54;;;;;;;;;;;;;;;;;;4734217;30;20040;-61
2022/07/10 13:07:35;;;;;;;2.08;0.60;;;;;;;;;;4734589;30;19926;-59
2022/07/10 13:10:05;;;;;;;0.55;0.30;;;;;;;;;;4734753;30;20057;-60
2022/07/10 13:12:34;;;;;;;1.23;0.43;;;;;;;;;;4734634;30;20055;-60
2022/07/10 13:15:05;;;;;;;1.33;0.40;;;;;;;;;;4734971;30;20040;-60
2022/07/10 13:17:32;;;;;;;2.72;0.45;;;;;;;;;;4734721;30;20048;-60
2022/07/10 13:19:59;;;;;;;1.75;0.50;;;;;;;;;;4734567;30;20048;-60
2022/07/10 13:22:27;;;;;;;1.17;0.50;;;;;;;;;;4734536;30;20396;-60
2022/07/10 13:24:54;;;;;;;1.67;0.35;;;;;;;;;;4734681;30;20414;-60
2022/07/10 13:27:23;;;;;;;0.50;0.40;;;;;;;;;;4727198;30;20457;-59
2022/07/10 13:29:50;;;;;;;0.63;0.45;;;;;;;;;;4734882;30;20051;-60
2022/07/10 13:32:18;;;;;;;2.17;0.40;;;;;;;;;;4734426;30;20506;-60
2022/07/10 13:34:45;;;;;;;1.40;0.40;;;;;;;;;;4734582;30;20049;-60
2022/07/10 13:37:14;;;;;;;1.95;0.57;;;;;;;;;;4734152;30;20053;-60
2022/07/10 13:39:41;;;;;;;0.82;0.40;;;;;;;;;;4734063;30;20469;-60
2022/07/10 13:42:09;;;;;;;0.68;0.38;;;;;;;;;;4734417;30;20075;-60
2022/07/10 13:44:36;;;;;;;0.88;0.40;;;;;;;;;;4734609;30;20049;-60
2022/07/10 13:47:04;;;;;;;1.30;0.50;;;;;;;;;;4734584;30;20132;-60
2022/07/10 13:49:31;;;;;;;1.10;0.50;;;;;;;;;;4734365;30;20460;-60
2022/07/10 13:51:58;;;;;;;4.13;0.60;;;;;;;;;;4716754;30;20059;-59
2022/07/10 13:54:25;;;;;;;2.13;0.50;;;;;;;;;;4716901;30;20045;-60
2022/07/10 13:56:53;;;;;;;1.38;0.40;;;;;;;;;;4716686;30;20502;-58
2022/07/10 13:59:20;;;;;;;1.02;0.40;;;;;;;;;;4716160;30;20076;-60
2022/07/10 14:01:47;;;;;;;0.98;0.32;;;;;;;;;;4717170;30;20136;-60
2022/07/10 14:04:15;;;;;;;0.85;0.50;;;;;;;;;;4716559;30;20103;-61
2022/07/10 14:06:42;;;;;;;0.75;0.40;;;;;;;;;;4716569;30;20074;-60
2022/07/10 14:09:09;;;;;;;1.60;0.50;;;;;;;;;;4716719;30;20136;-61
2022/07/10 14:11:37;;;;;;;0.70;0.50;;;;;;;;;;4715903;30;20461;-60
2022/07/10 14:14:04;;;;;;;1.52;0.50;;;;;;;;;;4716272;30;20092;-59
2022/07/10 14:16:31;;;;;;;1.10;0.50;;;;;;;;;;4716157;30;20053;-60
2022/07/10 14:18:59;;;;;;;0.90;0.50;;;;;;;;;;4716431;30;20125;-59
2022/07/10 14:21:27;;;;;;;1.60;0.50;;;;;;;;;;4715873;30;20053;-61
2022/07/10 14:23:56;;;;;;;0.65;0.40;;;;;;;;;;4716409;30;20100;-60
2022/07/10 14:26:24;;;;;;;2.53;0.50;;;;;;;;;;4716493;30;20138;-58
2022/07/10 14:28:51;;;;;;;2.05;0.43;;;;;;;;;;4716467;30;20049;-55
2022/07/10 14:31:18;;;;;;;1.25;0.50;;;;;;;;;;4716531;30;20041;-60
2022/07/10 14:33:46;;;;;;;0.90;0.68;;;;;;;;;;4716716;30;20062;-61
2022/07/10 14:36:13;;;;;;;0.70;0.50;;;;;;;;;;4716311;30;20045;-61
2022/07/10 14:38:41;;;;;;;1.33;0.70;;;;;;;;;;4716337;30;20384;-61
2022/07/10 14:41:09;;;;;;;1.33;0.60;;;;;;;;;;4715877;30;20084;-61
2022/07/10 14:43:37;;;;;;;1.23;0.60;;;;;;;;;;4715831;30;20057;-61
2022/07/10 14:46:05;;;;;;;2.22;0.63;;;;;;;;;;4716088;30;20514;-59
2022/07/10 14:48:35;;;;;;;1.17;0.57;;;;;;;;;;4716244;30;20053;-59
2022/07/10 14:51:03;;;;;;;1.10;0.60;;;;;;;;;;4737927;30;20047;-60
2022/07/10 14:53:34;;;;;;;1.10;0.50;;;;;;;;;;4751150;30;20048;-61
2022/07/10 14:56:03;;;;;;;2.35;0.80;;;;;;;;;;4751135;30;20517;-61
2022/07/10 14:58:31;;;;;;;0.80;0.50;;;;;;;;;;4750873;30;20056;-61
2022/07/10 15:01:18;;;;;;;2.35;0.50;;;;;;;;;;4751374;30;20395;-60
2022/07/10 15:03:46;;;;;;;1.10;0.50;;;;;;;;;;4751260;30;20530;-61
2022/07/10 15:06:13;;;;;;;2.13;0.75;;;;;;;;;;4750967;30;20192;-59
2022/07/10 15:08:40;;;;;;;1.02;0.65;;;;;;;;;;4750838;30;20098;-61
2022/07/10 15:11:07;;;;;;;2.15;0.60;;;;;;;;;;4752715;30;20516;-60
2022/07/10 15:13:35;;;;;;;0.93;0.50;;;;;;;;;;4754349;30;20052;-61